sensor_id;sensor_type;location;lat;lon;timestamp;P1;durP1;ratioP1;P2;durP2;ratioP2
35907;SDS011;22003;50.320;8.054;2023-03-07T05:00:42;28.88;;;14.18;;
35907;SDS011;22003;50.320;8.054;2023-03-07T05:03:09;27.83;;;15.05;;
35907;SDS011;22003;50.320;8.054;2023-03-07T05:05:36;32.85;;;15.32;;
35907;SDS011;22003;50.320;8.054;2023-03-07T05:08:01;26.35;;;13.82;;
35907;SDS011;22003;50.320;8.054;2023-03-07T05:10:28;25.80;;;14.02;;
35907;SDS011;22003;50.320;8.054;2023-03-07T05:12:54;27.42;;;13.77;;
35907;SDS011;22003;50.320;8.054;2023-03-07T05:15:19;32.00;;;15.68;;
35907;SDS011;22003;50.320;8.054;2023-03-07T05:17:44;30.50;;;13.90;;
35907;SDS011;22003;50.320;8.054;2023-03-07T05:20:10;27.35;;;13.90;;
35907;SDS011;22003;50.320;8.054;2023-03-07T05:22:36;27.20;;;14.50;;
35907;SDS011;22003;50.320;8.054;2023-03-07T05:25:01;28.75;;;14.13;;
35907;SDS011;22003;50.320;8.054;2023-03-07T05:27:27;25.27;;;13.43;;
35907;SDS011;22003;50.320;8.054;2023-03-07T05:29:52;31.30;;;14.75;;
35907;SDS011;22003;50.320;8.054;2023-03-07T05:32:17;26.13;;;13.82;;
35907;SDS011;22003;50.320;8.054;2023-03-07T05:34:43;26.02;;;12.93;;
35907;SDS011;22003;50.320;8.054;2023-03-07T05:39:36;25.95;;;13.30;;
35907;SDS011;22003;50.320;8.054;2023-03-07T05:42:01;28.58;;;14.13;;
35907;SDS011;22003;50.320;8.054;2023-03-07T05:44:26;25.52;;;13.15;;
35907;SDS011;22003;50.320;8.054;2023-03-07T05:46:51;24.40;;;13.73;;
35907;SDS011;22003;50.320;8.054;2023-03-07T05:49:17;28.75;;;13.20;;
35907;SDS011;22003;50.320;8.054;2023-03-07T05:51:42;28.30;;;13.45;;
35907;SDS011;22003;50.320;8.054;2023-03-07T05:54:07;24.15;;;12.88;;
35907;SDS011;22003;50.320;8.054;2023-03-07T05:56:33;25.67;;;13.50;;
35907;SDS011;22003;50.320;8.054;2023-03-07T05:58:58;22.80;;;12.32;;
35907;SDS011;22003;50.320;8.054;2023-03-07T06:01:23;22.85;;;11.75;;
35907;SDS011;22003;50.320;8.054;2023-03-07T06:03:48;22.33;;;11.95;;
35907;SDS011;22003;50.320;8.054;2023-03-07T06:06:14;23.08;;;12.25;;
35907;SDS011;22003;50.320;8.054;2023-03-07T06:08:39;26.15;;;12.68;;
35907;SDS011;22003;50.320;8.054;2023-03-07T06:11:04;28.67;;;12.73;;
35907;SDS011;22003;50.320;8.054;2023-03-07T06:13:29;31.13;;;14.00;;
35907;SDS011;22003;50.320;8.054;2023-03-07T06:15:55;21.50;;;11.60;;
35907;SDS011;22003;50.320;8.054;2023-03-07T06:18:21;23.73;;;11.68;;
35907;SDS011;22003;50.320;8.054;2023-03-07T06:20:57;27.88;;;12.32;;
35907;SDS011;22003;50.320;8.054;2023-03-07T06:23:27;22.05;;;10.77;;
35907;SDS011;22003;50.320;8.054;2023-03-07T06:25:54;28.65;;;13.15;;
35907;SDS011;22003;50.320;8.054;2023-03-07T06:28:19;22.92;;;11.85;;
35907;SDS011;22003;50.320;8.054;2023-03-07T06:30:45;24.25;;;12.25;;
35907;SDS011;22003;50.320;8.054;2023-03-07T06:33:10;26.85;;;11.27;;
35907;SDS011;22003;50.320;8.054;2023-03-07T06:35:39;22.02;;;11.13;;
35907;SDS011;22003;50.320;8.054;2023-03-07T06:38:05;22.48;;;11.02;;
35907;SDS011;22003;50.320;8.054;2023-03-07T06:40:31;28.70;;;12.05;;
35907;SDS011;22003;50.320;8.054;2023-03-07T06:42:56;26.45;;;11.65;;
35907;SDS011;22003;50.320;8.054;2023-03-07T06:45:21;21.48;;;11.45;;
35907;SDS011;22003;50.320;8.054;2023-03-07T06:47:47;28.70;;;12.88;;
35907;SDS011;22003;50.320;8.054;2023-03-07T06:50:12;24.25;;;11.52;;
35907;SDS011;22003;50.320;8.054;2023-03-07T06:52:37;26.27;;;12.02;;
35907;SDS011;22003;50.320;8.054;2023-03-07T06:55:03;22.73;;;10.60;;
35907;SDS011;22003;50.320;8.054;2023-03-07T06:57:28;22.05;;;10.77;;
35907;SDS011;22003;50.320;8.054;2023-03-07T06:59:54;25.70;;;12.43;;
35907;SDS011;22003;50.320;8.054;2023-03-07T07:02:19;23.80;;;11.98;;
35907;SDS011;22003;50.320;8.054;2023-03-07T07:04:44;24.42;;;10.57;;
35907;SDS011;22003;50.320;8.054;2023-03-07T07:07:09;21.30;;;10.93;;
35907;SDS011;22003;50.320;8.054;2023-03-07T07:09:35;21.15;;;10.35;;
35907;SDS011;22003;50.320;8.054;2023-03-07T07:12:00;18.33;;;10.43;;
35907;SDS011;22003;50.320;8.054;2023-03-07T07:14:25;21.17;;;11.45;;
35907;SDS011;22003;50.320;8.054;2023-03-07T07:16:50;18.95;;;9.10;;
35907;SDS011;22003;50.320;8.054;2023-03-07T07:19:16;18.15;;;9.73;;
35907;SDS011;22003;50.320;8.054;2023-03-07T07:21:41;19.92;;;10.10;;
35907;SDS011;22003;50.320;8.054;2023-03-07T07:24:07;21.98;;;11.55;;
35907;SDS011;22003;50.320;8.054;2023-03-07T07:26:35;18.40;;;9.65;;
35907;SDS011;22003;50.320;8.054;2023-03-07T07:29:01;21.42;;;11.40;;
35907;SDS011;22003;50.320;8.054;2023-03-07T07:31:26;18.50;;;9.48;;
35907;SDS011;22003;50.320;8.054;2023-03-07T07:33:51;20.40;;;11.13;;
35907;SDS011;22003;50.320;8.054;2023-03-07T07:36:17;20.30;;;10.07;;
35907;SDS011;22003;50.320;8.054;2023-03-07T07:38:42;19.10;;;9.85;;
35907;SDS011;22003;50.320;8.054;2023-03-07T07:41:07;22.42;;;10.27;;
35907;SDS011;22003;50.320;8.054;2023-03-07T07:43:32;18.52;;;9.60;;
35907;SDS011;22003;50.320;8.054;2023-03-07T07:45:58;19.35;;;10.50;;
35907;SDS011;22003;50.320;8.054;2023-03-07T07:48:23;18.95;;;9.73;;
35907;SDS011;22003;50.320;8.054;2023-03-07T07:50:48;17.88;;;9.35;;
35907;SDS011;22003;50.320;8.054;2023-03-07T07:53:13;21.38;;;10.60;;
35907;SDS011;22003;50.320;8.054;2023-03-07T07:55:41;22.40;;;10.57;;
35907;SDS011;22003;50.320;8.054;2023-03-07T07:58:06;16.00;;;9.43;;
35907;SDS011;22003;50.320;8.054;2023-03-07T08:00:31;19.05;;;10.18;;
35907;SDS011;22003;50.320;8.054;2023-03-07T08:02:57;16.70;;;9.45;;
35907;SDS011;22003;50.320;8.054;2023-03-07T08:05:23;19.27;;;10.32;;
35907;SDS011;22003;50.320;8.054;2023-03-07T08:07:48;20.02;;;9.80;;
35907;SDS011;22003;50.320;8.054;2023-03-07T08:10:14;18.92;;;9.68;;
35907;SDS011;22003;50.320;8.054;2023-03-07T08:12:41;19.30;;;10.48;;
35907;SDS011;22003;50.320;8.054;2023-03-07T08:15:12;20.65;;;10.18;;
35907;SDS011;22003;50.320;8.054;2023-03-07T08:17:37;16.73;;;9.40;;
35907;SDS011;22003;50.320;8.054;2023-03-07T08:20:03;17.40;;;9.27;;
35907;SDS011;22003;50.320;8.054;2023-03-07T08:22:33;17.55;;;9.25;;
35907;SDS011;22003;50.320;8.054;2023-03-07T08:24:59;20.27;;;10.20;;
35907;SDS011;22003;50.320;8.054;2023-03-07T08:27:26;18.35;;;9.68;;
35907;SDS011;22003;50.320;8.054;2023-03-07T08:29:51;19.10;;;9.63;;
35907;SDS011;22003;50.320;8.054;2023-03-07T08:32:16;18.17;;;9.27;;
35907;SDS011;22003;50.320;8.054;2023-03-07T08:34:41;18.85;;;9.45;;
35907;SDS011;22003;50.320;8.054;2023-03-07T08:37:07;20.35;;;9.00;;
35907;SDS011;22003;50.320;8.054;2023-03-07T08:39:32;19.05;;;9.48;;
35907;SDS011;22003;50.320;8.054;2023-03-07T08:41:57;17.58;;;9.25;;
35907;SDS011;22003;50.320;8.054;2023-03-07T08:44:23;21.42;;;9.30;;
35907;SDS011;22003;50.320;8.054;2023-03-07T08:46:48;17.40;;;8.70;;
35907;SDS011;22003;50.320;8.054;2023-03-07T08:49:14;18.33;;;9.20;;
35907;SDS011;22003;50.320;8.054;2023-03-07T08:51:39;16.33;;;8.27;;
35907;SDS011;22003;50.320;8.054;2023-03-07T08:54:04;19.85;;;10.32;;
35907;SDS011;22003;50.320;8.054;2023-03-07T08:56:29;20.98;;;10.82;;
35907;SDS011;22003;50.320;8.054;2023-03-07T08:58:54;21.77;;;11.30;;
35907;SDS011;22003;50.320;8.054;2023-03-07T09:01:20;16.98;;;8.30;;
35907;SDS011;22003;50.320;8.054;2023-03-07T09:03:45;12.85;;;7.40;;
35907;SDS011;22003;50.320;8.054;2023-03-07T09:06:14;15.50;;;8.38;;
35907;SDS011;22003;50.320;8.054;2023-03-07T09:08:42;15.07;;;7.65;;
35907;SDS011;22003;50.320;8.054;2023-03-07T09:11:07;16.23;;;8.88;;
35907;SDS011;22003;50.320;8.054;2023-03-07T09:13:33;14.13;;;8.13;;
35907;SDS011;22003;50.320;8.054;2023-03-07T09:15:58;16.40;;;7.63;;
35907;SDS011;22003;50.320;8.054;2023-03-07T09:18:23;17.40;;;8.50;;
35907;SDS011;22003;50.320;8.054;2023-03-07T09:20:48;18.75;;;7.95;;
35907;SDS011;22003;50.320;8.054;2023-03-07T09:23:14;17.10;;;8.90;;
35907;SDS011;22003;50.320;8.054;2023-03-07T09:25:39;18.70;;;9.38;;
35907;SDS011;22003;50.320;8.054;2023-03-07T09:28:04;25.08;;;10.65;;
35907;SDS011;22003;50.320;8.054;2023-03-07T09:30:29;18.02;;;9.50;;
35907;SDS011;22003;50.320;8.054;2023-03-07T09:32:55;27.33;;;12.40;;
35907;SDS011;22003;50.320;8.054;2023-03-07T09:35:21;30.48;;;12.93;;
35907;SDS011;22003;50.320;8.054;2023-03-07T09:37:46;16.25;;;8.05;;
35907;SDS011;22003;50.320;8.054;2023-03-07T09:40:15;20.77;;;9.55;;
35907;SDS011;22003;50.320;8.054;2023-03-07T09:43:05;14.82;;;8.57;;
35907;SDS011;22003;50.320;8.054;2023-03-07T09:48:59;12.63;;;7.47;;
35907;SDS011;22003;50.320;8.054;2023-03-07T09:51:38;19.30;;;9.85;;
35907;SDS011;22003;50.320;8.054;2023-03-07T09:54:14;17.05;;;8.90;;
35907;SDS011;22003;50.320;8.054;2023-03-07T09:56:50;20.42;;;9.80;;
35907;SDS011;22003;50.320;8.054;2023-03-07T10:04:45;21.05;;;9.93;;
35907;SDS011;22003;50.320;8.054;2023-03-07T10:07:14;19.65;;;9.70;;
35907;SDS011;22003;50.320;8.054;2023-03-07T10:09:43;18.20;;;8.52;;
35907;SDS011;22003;50.320;8.054;2023-03-07T10:14:51;14.73;;;8.00;;
35907;SDS011;22003;50.320;8.054;2023-03-07T10:23:39;17.50;;;8.25;;
35907;SDS011;22003;50.320;8.054;2023-03-07T10:26:22;16.05;;;8.18;;
35907;SDS011;22003;50.320;8.054;2023-03-07T10:29:10;14.90;;;8.40;;
35907;SDS011;22003;50.320;8.054;2023-03-07T10:31:39;17.23;;;8.65;;
35907;SDS011;22003;50.320;8.054;2023-03-07T10:34:22;16.15;;;8.18;;
35907;SDS011;22003;50.320;8.054;2023-03-07T10:36:50;15.25;;;8.05;;
35907;SDS011;22003;50.320;8.054;2023-03-07T10:39:26;11.38;;;6.35;;
35907;SDS011;22003;50.320;8.054;2023-03-07T10:41:58;15.07;;;7.10;;
35907;SDS011;22003;50.320;8.054;2023-03-07T10:44:23;14.30;;;7.85;;
35907;SDS011;22003;50.320;8.054;2023-03-07T10:46:54;15.70;;;8.18;;
35907;SDS011;22003;50.320;8.054;2023-03-07T10:49:24;15.85;;;7.75;;
35907;SDS011;22003;50.320;8.054;2023-03-07T10:54:36;14.30;;;7.78;;
35907;SDS011;22003;50.320;8.054;2023-03-07T10:57:06;17.10;;;7.67;;
35907;SDS011;22003;50.320;8.054;2023-03-07T10:59:46;15.60;;;7.22;;
35907;SDS011;22003;50.320;8.054;2023-03-07T11:05:47;12.05;;;7.47;;
35907;SDS011;22003;50.320;8.054;2023-03-07T11:07:57;11.57;;;6.15;;
35907;SDS011;22003;50.320;8.054;2023-03-07T11:12:56;13.65;;;7.53;;
35907;SDS011;22003;50.320;8.054;2023-03-07T11:15:21;14.82;;;7.00;;
35907;SDS011;22003;50.320;8.054;2023-03-07T11:17:48;13.43;;;6.70;;
35907;SDS011;22003;50.320;8.054;2023-03-07T11:20:25;12.68;;;6.90;;
35907;SDS011;22003;50.320;8.054;2023-03-07T11:25:37;9.75;;;5.82;;
35907;SDS011;22003;50.320;8.054;2023-03-07T11:28:03;14.07;;;7.47;;
35907;SDS011;22003;50.320;8.054;2023-03-07T11:30:48;12.13;;;7.28;;
35907;SDS011;22003;50.320;8.054;2023-03-07T11:35:56;14.60;;;7.68;;
35907;SDS011;22003;50.320;8.054;2023-03-07T11:41:37;13.32;;;6.53;;
35907;SDS011;22003;50.320;8.054;2023-03-07T11:44:17;17.60;;;7.78;;
35907;SDS011;22003;50.320;8.054;2023-03-07T11:49:39;20.17;;;8.20;;
35907;SDS011;22003;50.320;8.054;2023-03-07T11:55:21;14.65;;;6.65;;
35907;SDS011;22003;50.320;8.054;2023-03-07T12:01:06;15.23;;;7.60;;
35907;SDS011;22003;50.320;8.054;2023-03-07T12:14:49;11.23;;;6.85;;
35907;SDS011;22003;50.320;8.054;2023-03-07T12:17:44;14.10;;;8.00;;
35907;SDS011;22003;50.320;8.054;2023-03-07T12:23:15;11.27;;;5.45;;
35907;SDS011;22003;50.320;8.054;2023-03-07T12:25:48;14.63;;;7.60;;
35907;SDS011;22003;50.320;8.054;2023-03-07T12:28:20;12.10;;;6.78;;
35907;SDS011;22003;50.320;8.054;2023-03-07T12:31:04;10.05;;;5.93;;
35907;SDS011;22003;50.320;8.054;2023-03-07T12:39:16;9.65;;;5.55;;
35907;SDS011;22003;50.320;8.054;2023-03-07T12:44:30;10.23;;;4.60;;
35907;SDS011;22003;50.320;8.054;2023-03-07T12:52:57;8.38;;;4.80;;
35907;SDS011;22003;50.320;8.054;2023-03-07T12:55:40;7.82;;;4.40;;
35907;SDS011;22003;50.320;8.054;2023-03-07T12:58:29;12.23;;;4.88;;
35907;SDS011;22003;50.320;8.054;2023-03-07T13:01:03;10.70;;;5.53;;
35907;SDS011;22003;50.320;8.054;2023-03-07T13:06:27;10.77;;;4.95;;
35907;SDS011;22003;50.320;8.054;2023-03-07T13:08:54;8.77;;;5.03;;
35907;SDS011;22003;50.320;8.054;2023-03-07T13:11:23;10.48;;;5.55;;
35907;SDS011;22003;50.320;8.054;2023-03-07T13:13:54;11.00;;;5.80;;
35907;SDS011;22003;50.320;8.054;2023-03-07T13:21:58;8.40;;;5.03;;
35907;SDS011;22003;50.320;8.054;2023-03-07T13:30:26;11.13;;;5.63;;
35907;SDS011;22003;50.320;8.054;2023-03-07T13:38:00;8.38;;;5.03;;
35907;SDS011;22003;50.320;8.054;2023-03-07T13:40:50;10.25;;;5.35;;
35907;SDS011;22003;50.320;8.054;2023-03-07T13:45:48;10.50;;;5.75;;
35907;SDS011;22003;50.320;8.054;2023-03-07T14:01:21;9.40;;;5.78;;
35907;SDS011;22003;50.320;8.054;2023-03-07T14:06:54;8.95;;;4.80;;
35907;SDS011;22003;50.320;8.054;2023-03-07T14:09:24;10.88;;;5.82;;
35907;SDS011;22003;50.320;8.054;2023-03-07T14:26:27;10.60;;;5.60;;
35907;SDS011;22003;50.320;8.054;2023-03-07T14:29:00;10.02;;;5.55;;
35907;SDS011;22003;50.320;8.054;2023-03-07T14:31:36;10.40;;;5.57;;
35907;SDS011;22003;50.320;8.054;2023-03-07T14:36:48;13.77;;;5.68;;
35907;SDS011;22003;50.320;8.054;2023-03-07T14:39:17;11.52;;;5.88;;
35907;SDS011;22003;50.320;8.054;2023-03-07T14:41:49;11.40;;;5.88;;
35907;SDS011;22003;50.320;8.054;2023-03-07T14:52:47;9.68;;;6.07;;
35907;SDS011;22003;50.320;8.054;2023-03-07T14:55:16;9.50;;;5.43;;
35907;SDS011;22003;50.320;8.054;2023-03-07T14:57:43;10.35;;;5.70;;
35907;SDS011;22003;50.320;8.054;2023-03-07T15:02:53;13.52;;;6.55;;
35907;SDS011;22003;50.320;8.054;2023-03-07T15:05:33;10.45;;;5.50;;
35907;SDS011;22003;50.320;8.054;2023-03-07T15:08:00;11.65;;;6.35;;
35907;SDS011;22003;50.320;8.054;2023-03-07T15:10:30;11.23;;;6.20;;
35907;SDS011;22003;50.320;8.054;2023-03-07T15:13:01;10.50;;;5.50;;
35907;SDS011;22003;50.320;8.054;2023-03-07T15:15:33;11.50;;;5.75;;
35907;SDS011;22003;50.320;8.054;2023-03-07T15:18:05;9.38;;;4.93;;
35907;SDS011;22003;50.320;8.054;2023-03-07T15:20:53;9.15;;;5.07;;
35907;SDS011;22003;50.320;8.054;2023-03-07T15:23:21;9.57;;;5.85;;
35907;SDS011;22003;50.320;8.054;2023-03-07T15:25:49;11.25;;;5.55;;
35907;SDS011;22003;50.320;8.054;2023-03-07T15:28:18;11.60;;;6.15;;
35907;SDS011;22003;50.320;8.054;2023-03-07T15:30:48;9.80;;;5.65;;
35907;SDS011;22003;50.320;8.054;2023-03-07T15:35:44;11.15;;;6.43;;
35907;SDS011;22003;50.320;8.054;2023-03-07T15:38:15;12.80;;;7.32;;
35907;SDS011;22003;50.320;8.054;2023-03-07T15:40:46;11.63;;;6.40;;
35907;SDS011;22003;50.320;8.054;2023-03-07T15:43:15;10.05;;;5.72;;
35907;SDS011;22003;50.320;8.054;2023-03-07T15:46:02;12.60;;;6.97;;
35907;SDS011;22003;50.320;8.054;2023-03-07T15:48:33;9.70;;;5.97;;
35907;SDS011;22003;50.320;8.054;2023-03-07T15:51:16;11.25;;;6.35;;
35907;SDS011;22003;50.320;8.054;2023-03-07T15:53:44;13.15;;;6.60;;
35907;SDS011;22003;50.320;8.054;2023-03-07T15:56:23;20.05;;;8.95;;
35907;SDS011;22003;50.320;8.054;2023-03-07T15:58:55;16.73;;;7.82;;
35907;SDS011;22003;50.320;8.054;2023-03-07T16:01:25;27.48;;;10.70;;
35907;SDS011;22003;50.320;8.054;2023-03-07T16:03:58;17.70;;;7.93;;
35907;SDS011;22003;50.320;8.054;2023-03-07T16:09:01;17.92;;;7.93;;
35907;SDS011;22003;50.320;8.054;2023-03-07T16:11:27;17.17;;;8.10;;
35907;SDS011;22003;50.320;8.054;2023-03-07T16:13:53;14.25;;;7.90;;
35907;SDS011;22003;50.320;8.054;2023-03-07T16:16:22;12.95;;;7.07;;
35907;SDS011;22003;50.320;8.054;2023-03-07T16:18:48;17.63;;;8.80;;
35907;SDS011;22003;50.320;8.054;2023-03-07T16:21:15;15.23;;;7.10;;
35907;SDS011;22003;50.320;8.054;2023-03-07T16:23:41;18.65;;;8.13;;
35907;SDS011;22003;50.320;8.054;2023-03-07T16:26:09;20.02;;;8.30;;
35907;SDS011;22003;50.320;8.054;2023-03-07T16:28:38;14.98;;;6.93;;
35907;SDS011;22003;50.320;8.054;2023-03-07T16:31:08;15.55;;;6.97;;
35907;SDS011;22003;50.320;8.054;2023-03-07T16:33:35;13.55;;;7.30;;
35907;SDS011;22003;50.320;8.054;2023-03-07T16:36:00;16.98;;;7.82;;
35907;SDS011;22003;50.320;8.054;2023-03-07T16:38:26;15.20;;;7.45;;
35907;SDS011;22003;50.320;8.054;2023-03-07T16:40:51;16.73;;;8.00;;
35907;SDS011;22003;50.320;8.054;2023-03-07T16:43:28;20.23;;;8.80;;
35907;SDS011;22003;50.320;8.054;2023-03-07T16:45:56;21.13;;;8.35;;
35907;SDS011;22003;50.320;8.054;2023-03-07T16:48:22;14.57;;;7.50;;
35907;SDS011;22003;50.320;8.054;2023-03-07T16:50:47;18.25;;;8.63;;
35907;SDS011;22003;50.320;8.054;2023-03-07T16:53:13;17.70;;;8.20;;
35907;SDS011;22003;50.320;8.054;2023-03-07T16:55:38;17.70;;;8.65;;
35907;SDS011;22003;50.320;8.054;2023-03-07T16:58:04;17.90;;;8.65;;
35907;SDS011;22003;50.320;8.054;2023-03-07T17:00:31;16.17;;;8.25;;
35907;SDS011;22003;50.320;8.054;2023-03-07T17:02:57;17.55;;;8.02;;
35907;SDS011;22003;50.320;8.054;2023-03-07T17:05:25;14.73;;;7.72;;
35907;SDS011;22003;50.320;8.054;2023-03-07T17:07:52;15.27;;;7.18;;
35907;SDS011;22003;50.320;8.054;2023-03-07T17:10:18;19.13;;;8.68;;
35907;SDS011;22003;50.320;8.054;2023-03-07T17:12:44;17.17;;;8.65;;
35907;SDS011;22003;50.320;8.054;2023-03-07T17:15:14;16.70;;;7.07;;
35907;SDS011;22003;50.320;8.054;2023-03-07T17:17:42;16.52;;;8.48;;
35907;SDS011;22003;50.320;8.054;2023-03-07T17:20:12;16.05;;;9.05;;
35907;SDS011;22003;50.320;8.054;2023-03-07T17:22:40;17.98;;;8.63;;
35907;SDS011;22003;50.320;8.054;2023-03-07T17:25:06;14.68;;;8.38;;
35907;SDS011;22003;50.320;8.054;2023-03-07T17:27:32;14.23;;;7.95;;
35907;SDS011;22003;50.320;8.054;2023-03-07T17:29:59;15.13;;;7.72;;
35907;SDS011;22003;50.320;8.054;2023-03-07T17:32:24;12.95;;;7.05;;
35907;SDS011;22003;50.320;8.054;2023-03-07T17:34:49;13.40;;;7.10;;
35907;SDS011;22003;50.320;8.054;2023-03-07T17:37:15;12.68;;;7.10;;
35907;SDS011;22003;50.320;8.054;2023-03-07T17:39:41;22.92;;;8.45;;
35907;SDS011;22003;50.320;8.054;2023-03-07T17:42:07;10.98;;;6.82;;
35907;SDS011;22003;50.320;8.054;2023-03-07T17:44:32;19.17;;;7.35;;
35907;SDS011;22003;50.320;8.054;2023-03-07T17:46:58;18.88;;;7.97;;
35907;SDS011;22003;50.320;8.054;2023-03-07T17:49:24;15.75;;;8.63;;
35907;SDS011;22003;50.320;8.054;2023-03-07T17:51:55;20.23;;;9.60;;
35907;SDS011;22003;50.320;8.054;2023-03-07T17:54:20;18.20;;;8.75;;
35907;SDS011;22003;50.320;8.054;2023-03-07T17:56:45;16.13;;;8.10;;
35907;SDS011;22003;50.320;8.054;2023-03-07T17:59:11;20.42;;;8.82;;
35907;SDS011;22003;50.320;8.054;2023-03-07T18:01:36;16.50;;;8.45;;
35907;SDS011;22003;50.320;8.054;2023-03-07T18:04:02;15.45;;;8.63;;
35907;SDS011;22003;50.320;8.054;2023-03-07T18:06:30;16.02;;;8.13;;
35907;SDS011;22003;50.320;8.054;2023-03-07T18:08:57;20.80;;;8.88;;
35907;SDS011;22003;50.320;8.054;2023-03-07T18:11:23;17.63;;;10.13;;
35907;SDS011;22003;50.320;8.054;2023-03-07T18:13:48;21.38;;;8.65;;
35907;SDS011;22003;50.320;8.054;2023-03-07T18:16:13;16.15;;;7.93;;
35907;SDS011;22003;50.320;8.054;2023-03-07T18:18:39;17.40;;;7.57;;
35907;SDS011;22003;50.320;8.054;2023-03-07T18:21:06;11.25;;;5.15;;
35907;SDS011;22003;50.320;8.054;2023-03-07T18:23:37;6.07;;;3.80;;
35907;SDS011;22003;50.320;8.054;2023-03-07T18:26:04;3.63;;;2.45;;
35907;SDS011;22003;50.320;8.054;2023-03-07T18:28:35;4.45;;;2.60;;
35907;SDS011;22003;50.320;8.054;2023-03-07T18:31:06;5.53;;;2.90;;
35907;SDS011;22003;50.320;8.054;2023-03-07T18:33:33;4.00;;;2.88;;
35907;SDS011;22003;50.320;8.054;2023-03-07T18:36:00;4.80;;;3.15;;
35907;SDS011;22003;50.320;8.054;2023-03-07T18:38:25;7.70;;;3.63;;
35907;SDS011;22003;50.320;8.054;2023-03-07T18:40:51;4.82;;;3.08;;
35907;SDS011;22003;50.320;8.054;2023-03-07T18:43:27;4.35;;;2.70;;
35907;SDS011;22003;50.320;8.054;2023-03-07T18:45:52;4.53;;;2.78;;
35907;SDS011;22003;50.320;8.054;2023-03-07T18:48:17;5.22;;;2.97;;
35907;SDS011;22003;50.320;8.054;2023-03-07T18:50:42;4.53;;;3.20;;
35907;SDS011;22003;50.320;8.054;2023-03-07T18:53:08;4.53;;;2.63;;
35907;SDS011;22003;50.320;8.054;2023-03-07T18:55:35;6.63;;;3.67;;
35907;SDS011;22003;50.320;8.054;2023-03-07T18:58:01;5.00;;;2.88;;
35907;SDS011;22003;50.320;8.054;2023-03-07T19:00:26;33.08;;;13.38;;
35907;SDS011;22003;50.320;8.054;2023-03-07T19:02:52;7.90;;;4.32;;
35907;SDS011;22003;50.320;8.054;2023-03-07T19:05:17;42.90;;;17.38;;
35907;SDS011;22003;50.320;8.054;2023-03-07T19:07:42;7.38;;;4.25;;
35907;SDS011;22003;50.320;8.054;2023-03-07T19:10:08;28.92;;;11.02;;
35907;SDS011;22003;50.320;8.054;2023-03-07T19:12:33;7.50;;;4.07;;
35907;SDS011;22003;50.320;8.054;2023-03-07T19:14:59;8.68;;;5.20;;
35907;SDS011;22003;50.320;8.054;2023-03-07T19:17:24;7.10;;;4.35;;
35907;SDS011;22003;50.320;8.054;2023-03-07T19:19:49;4.93;;;3.42;;
35907;SDS011;22003;50.320;8.054;2023-03-07T19:22:16;5.18;;;2.80;;
35907;SDS011;22003;50.320;8.054;2023-03-07T19:24:47;5.18;;;2.90;;
35907;SDS011;22003;50.320;8.054;2023-03-07T19:27:12;6.53;;;3.88;;
35907;SDS011;22003;50.320;8.054;2023-03-07T19:29:38;5.28;;;3.15;;
35907;SDS011;22003;50.320;8.054;2023-03-07T19:32:03;3.75;;;2.58;;
35907;SDS011;22003;50.320;8.054;2023-03-07T19:34:28;8.65;;;5.28;;
35907;SDS011;22003;50.320;8.054;2023-03-07T19:36:53;11.80;;;5.80;;
35907;SDS011;22003;50.320;8.054;2023-03-07T19:39:19;6.90;;;3.90;;
35907;SDS011;22003;50.320;8.054;2023-03-07T19:41:44;22.88;;;11.27;;
35907;SDS011;22003;50.320;8.054;2023-03-07T19:44:12;7.78;;;4.47;;
35907;SDS011;22003;50.320;8.054;2023-03-07T19:46:38;8.73;;;4.35;;
35907;SDS011;22003;50.320;8.054;2023-03-07T19:49:06;17.40;;;7.10;;
35907;SDS011;22003;50.320;8.054;2023-03-07T19:51:32;24.00;;;7.47;;
35907;SDS011;22003;50.320;8.054;2023-03-07T19:53:57;14.27;;;8.32;;
35907;SDS011;22003;50.320;8.054;2023-03-07T19:56:27;11.88;;;7.50;;
35907;SDS011;22003;50.320;8.054;2023-03-07T19:58:53;15.52;;;8.18;;
35907;SDS011;22003;50.320;8.054;2023-03-07T20:01:20;18.90;;;9.43;;
35907;SDS011;22003;50.320;8.054;2023-03-07T20:03:46;18.35;;;9.30;;
35907;SDS011;22003;50.320;8.054;2023-03-07T20:06:13;19.20;;;9.75;;
35907;SDS011;22003;50.320;8.054;2023-03-07T20:08:40;10.43;;;5.57;;
35907;SDS011;22003;50.320;8.054;2023-03-07T20:11:09;17.15;;;7.60;;
35907;SDS011;22003;50.320;8.054;2023-03-07T20:13:36;50.58;;;14.75;;
35907;SDS011;22003;50.320;8.054;2023-03-07T20:16:02;32.67;;;11.82;;
35907;SDS011;22003;50.320;8.054;2023-03-07T20:18:28;19.15;;;9.38;;
35907;SDS011;22003;50.320;8.054;2023-03-07T20:20:53;10.60;;;6.15;;
35907;SDS011;22003;50.320;8.054;2023-03-07T20:23:18;12.60;;;6.43;;
35907;SDS011;22003;50.320;8.054;2023-03-07T20:25:43;8.88;;;5.07;;
35907;SDS011;22003;50.320;8.054;2023-03-07T20:28:09;8.80;;;5.35;;
35907;SDS011;22003;50.320;8.054;2023-03-07T20:30:36;9.88;;;5.07;;
35907;SDS011;22003;50.320;8.054;2023-03-07T20:33:03;7.38;;;4.47;;
35907;SDS011;22003;50.320;8.054;2023-03-07T20:35:28;8.52;;;5.10;;
35907;SDS011;22003;50.320;8.054;2023-03-07T20:37:53;9.07;;;4.70;;
35907;SDS011;22003;50.320;8.054;2023-03-07T20:40:19;7.50;;;4.88;;
35907;SDS011;22003;50.320;8.054;2023-03-07T20:42:44;7.97;;;4.72;;
35907;SDS011;22003;50.320;8.054;2023-03-07T20:45:09;9.68;;;5.40;;
35907;SDS011;22003;50.320;8.054;2023-03-07T20:47:35;12.00;;;6.78;;
35907;SDS011;22003;50.320;8.054;2023-03-07T20:50:02;16.25;;;6.43;;
35907;SDS011;22003;50.320;8.054;2023-03-07T20:52:29;12.88;;;6.53;;
35907;SDS011;22003;50.320;8.054;2023-03-07T20:54:54;13.13;;;6.97;;
35907;SDS011;22003;50.320;8.054;2023-03-07T20:57:19;11.38;;;7.10;;
35907;SDS011;22003;50.320;8.054;2023-03-07T20:59:45;14.13;;;5.97;;
35907;SDS011;22003;50.320;8.054;2023-03-07T21:02:10;11.60;;;6.90;;
35907;SDS011;22003;50.320;8.054;2023-03-07T21:04:35;12.73;;;7.13;;
35907;SDS011;22003;50.320;8.054;2023-03-07T21:07:01;10.77;;;5.90;;
35907;SDS011;22003;50.320;8.054;2023-03-07T21:09:26;13.50;;;7.13;;
35907;SDS011;22003;50.320;8.054;2023-03-07T21:11:52;11.48;;;6.72;;
35907;SDS011;22003;50.320;8.054;2023-03-07T21:14:18;10.25;;;5.78;;
35907;SDS011;22003;50.320;8.054;2023-03-07T21:16:44;18.08;;;7.15;;
35907;SDS011;22003;50.320;8.054;2023-03-07T21:19:09;14.25;;;6.97;;
35907;SDS011;22003;50.320;8.054;2023-03-07T21:21:35;13.80;;;6.80;;
35907;SDS011;22003;50.320;8.054;2023-03-07T21:24:01;12.45;;;7.03;;
35907;SDS011;22003;50.320;8.054;2023-03-07T21:26:28;10.95;;;6.82;;
35907;SDS011;22003;50.320;8.054;2023-03-07T21:28:55;13.48;;;7.00;;
35907;SDS011;22003;50.320;8.054;2023-03-07T21:31:23;11.55;;;7.38;;
35907;SDS011;22003;50.320;8.054;2023-03-07T21:36:16;12.82;;;7.53;;
35907;SDS011;22003;50.320;8.054;2023-03-07T21:38:41;14.52;;;7.30;;
35907;SDS011;22003;50.320;8.054;2023-03-07T21:41:07;11.10;;;6.65;;
35907;SDS011;22003;50.320;8.054;2023-03-07T21:43:33;13.80;;;7.63;;
35907;SDS011;22003;50.320;8.054;2023-03-07T21:46:06;12.98;;;7.53;;
35907;SDS011;22003;50.320;8.054;2023-03-07T21:48:33;10.90;;;6.63;;
35907;SDS011;22003;50.320;8.054;2023-03-07T21:50:58;11.98;;;5.75;;
35907;SDS011;22003;50.320;8.054;2023-03-07T21:53:24;9.15;;;5.25;;
35907;SDS011;22003;50.320;8.054;2023-03-07T21:58:24;10.65;;;5.35;;
35907;SDS011;22003;50.320;8.054;2023-03-07T22:00:49;11.07;;;6.38;;
35907;SDS011;22003;50.320;8.054;2023-03-07T22:03:15;12.10;;;6.47;;
35907;SDS011;22003;50.320;8.054;2023-03-07T22:05:41;10.82;;;6.00;;
35907;SDS011;22003;50.320;8.054;2023-03-07T22:08:06;9.32;;;5.72;;